Orlando Sanford International Airport
KSFB : rendu visible

Aérodrome :











RETROUVEZ-NOUS SUR...

 
LOGIN :

S'inscrire | Disclaimer

   EN    FR    IT 

 









Légende :    VFR   VFR Marginal   IFR   IFR Intensif   IFR Très Intensif
Visi : 
Plafond : 
>= 8 km
>= 3000ft
5 à 8 km
1000 à 3000 ft
1500m à 5 km
500 à 1000 ft
800 à 1500m
200 à 500 ft
< 800m
< 200 ft
Symboles :   Orages  Brouillard  Fortes neiges  Fortes précipitations  Vent > 20 kt






- Altitude de l'aérodrome : 55 ft
- Code IATA : SFB


KSFB - Orlando Sanford International

DERNIER METAR :
  • 270153Z 08003KT 10SM CLR 14/08 A3006 RMK AO2 SLP178 T01390083

METARs EXPIRÉS :
  • 270053Z 12003KT 10SM FEW120 14/08 A3007 RMK AO2 SLP183 T01440083
  • 262353Z 10004KT 10SM CLR 16/07 A3006 RMK AO2 SLP179 T01560072 10200 20156 53011

TAF KSFB
Valide du 27 à 00h jusqu'au 28 à 00h UTC


262350Z 2700/2724 01005KT P6SM BKN120 BKN250
FM270300 VRB03KT P6SM OVC080
FM271600 26005KT P6SM SCT050 OVC070
FM272300 02005KT P6SM OVC050



MET'MAP, la Météo Aéronautique d'un coup d'oeil ! - Copyright ORBIFLY Décembre 2007 - Disclaimer

ORBIFLY MET'MAP TEAM :

Programmation & Développement : Alexandra Zaïnal
Sur une idée originale de : Baudouin d'Aumeries
Assistance à la programmation : Marc-Olivier Méhu
Soutien technique & logistique : Manuel Goepfert

Contact : metmap@orbifly.com




SOURCES & CREDITS :

   NOAA       Earth
Advisory